Time;durP1;ratioP1;P1;durP2;ratioP2;P2;SDS_P1;SDS_P2;PMS_P1;PMS_P2;Temp;Humidity;BMP_temperature;BMP_pressure;BME280_temperature;BME280_humidity;BME280_pressure;Samples;Min_cycle;Max_cycle;Signal;HPM_P1;HPM_P2
2022/04/01 00:03:24;;;;;;;;;;;;;;;;;;5112293;27;20006;-63
2022/04/01 00:05:50;;;;;;;;;;;;;;;;;;5111741;28;19954;-63
2022/04/01 00:10:40;;;;;;;;;;;;;;;;;;5091711;27;19916;-61
2022/04/01 00:13:06;;;;;;;;;;;;;;;;;;5091288;28;20006;-62
2022/04/01 00:15:32;;;;;;;;;;;;;;;;;;5091041;28;19916;-62
2022/04/01 00:17:58;;;;;;;;;;;;;;;;;;5091496;28;19909;-62
2022/04/01 00:20:27;;;;;;;;;;;;;;;;;;5091224;28;19987;-63
2022/04/01 00:22:53;;;;;;;;;;;;;;;;;;5090776;28;19909;-63
2022/04/01 00:27:03;;;;;;;;;;;;;;;;;;5153398;27;20014;-62
2022/04/01 00:29:30;;;;;;;;;;;;;;;;;;5152470;27;19955;-62
2022/04/01 00:31:59;;;;;;;;;;;;;;;;;;5152814;27;19913;-62
2022/04/01 00:36:08;;;;;;;;;;;;;;;;;;5112098;27;19923;-64
2022/04/01 00:38:34;;;;;;;;;;;;;;;;;;5111758;28;19912;-64
2022/04/01 00:41:00;;;;;;;;;;;;;;;;;;5111691;28;20417;-64
2022/04/01 00:43:26;;;;;;;;;;;;;;;;;;5111257;28;19966;-64
2022/04/01 00:45:53;;;;;;;;;;;;;;;;;;5112037;28;19908;-64
2022/04/01 00:49:45;;;;;;;;;;;;;;;;;;5111847;27;20292;-64
2022/04/01 00:52:11;;;;;;;;;;;;;;;;;;5110475;28;20007;-64
2022/04/01 00:54:37;;;;;;;;;;;;;;;;;;5111712;28;20003;-63
2022/04/01 00:57:28;;;;;;;;;;;;;;;;;;5152996;27;20022;-61
2022/04/01 01:02:21;;;;;;;;;;;;;;;;;;5111775;27;19912;-64
2022/04/01 01:04:47;;;;;;;;;;;;;;;;;;5109999;28;19912;-61
2022/04/01 01:09:28;;;;;;;;;;;;;;;;;;5111970;27;19922;-64
2022/04/01 01:13:24;;;;;;;;;;;;;;;;;;5112196;27;20286;-62
2022/04/01 01:18:43;;;;;;;;;;;;;;;;;;5111780;27;19922;-61
2022/04/01 01:21:09;;;;;;;;;;;;;;;;;;5111715;28;19912;-61
2022/04/01 01:23:35;;;;;;;;;;;;;;;;;;5111693;28;20419;-63
2022/04/01 01:26:01;;;;;;;;;;;;;;;;;;5111258;28;19946;-63
2022/04/01 01:28:27;;;;;;;;;;;;;;;;;;5110232;28;19908;-64
2022/04/01 01:30:54;;;;;;;;;;;;;;;;;;5112024;28;20359;-64
2022/04/01 01:33:20;;;;;;;;;;;;;;;;;;5111154;28;19943;-63
2022/04/01 01:35:46;;;;;;;;;;;;;;;;;;5111433;28;19945;-64
2022/04/01 01:38:13;;;;;;;;;;;;;;;;;;5111324;28;19920;-63
2022/04/01 01:44:27;;;;;;;;;;;;;;;;;;5111980;27;19916;-63
2022/04/01 01:48:52;;;;;;;;;;;;;;;;;;5112368;27;19922;-62
2022/04/01 01:56:47;;;;;;;;;;;;;;;;;;5111627;28;20378;-62
2022/04/01 01:59:13;;;;;;;;;;;;;;;;;;5111789;28;19908;-61
2022/04/01 02:01:39;;;;;;;;;;;;;;;;;;5109835;28;20297;-61
2022/04/01 02:04:05;;;;;;;;;;;;;;;;;;5110163;28;19947;-62
2022/04/01 02:06:31;;;;;;;;;;;;;;;;;;5110058;28;20302;-63
2022/04/01 02:09:29;;;;;;;;;;;;;;;;;;5112144;27;20368;-62
2022/04/01 02:11:55;;;;;;;;;;;;;;;;;;5110383;28;19919;-62
2022/04/01 02:16:59;;;;;;;;;;;;;;;;;;5112148;27;19922;-64
2022/04/01 02:19:25;;;;;;;;;;;;;;;;;;5111755;28;20002;-63
2022/04/01 02:22:35;;;;;;;;;;;;;;;;;;5070902;28;20384;-63
2022/04/01 02:27:59;;;;;;;;;;;;;;;;;;5112433;27;19918;-61
2022/04/01 02:30:25;;;;;;;;;;;;;;;;;;5111317;28;20350;-61
2022/04/01 02:32:52;;;;;;;;;;;;;;;;;;5111636;28;19986;-62
2022/04/01 02:38:03;;;;;;;;;;;;;;;;;;5112134;27;19938;-63
2022/04/01 02:40:29;;;;;;;;;;;;;;;;;;5110409;28;19999;-63
2022/04/01 02:42:55;;;;;;;;;;;;;;;;;;5111282;28;19991;-61
2022/04/01 02:45:21;;;;;;;;;;;;;;;;;;5111650;28;20359;-61
2022/04/01 02:47:47;;;;;;;;;;;;;;;;;;5111553;28;19953;-62
2022/04/01 02:51:46;;;;;;;;;;;;;;;;;;5072011;28;19912;-61
2022/04/01 02:54:12;;;;;;;;;;;;;;;;;;5071093;28;19966;-63
2022/04/01 02:56:38;;;;;;;;;;;;;;;;;;5070961;28;19909;-63
2022/04/01 02:59:07;;;;;;;;;;;;;;;;;;5071055;28;20304;-63
2022/04/01 03:01:32;;;;;;;;;;;;;;;;;;5069737;28;19912;-64
2022/04/01 03:05:13;;;;;;;;;;;;;;;;;;5091071;27;19919;-61
2022/04/01 03:07:39;;;;;;;;;;;;;;;;;;5091279;28;19999;-62
2022/04/01 03:10:49;;;;;;;;;;;;;;;;;;5091512;28;19923;-64
2022/04/01 03:13:35;;;;;;;;;;;;;;;;;;5112355;27;19923;-61
2022/04/01 03:16:02;;;;;;;;;;;;;;;;;;5111670;28;20006;-61
2022/04/01 03:18:28;;;;;;;;;;;;;;;;;;5111312;28;20375;-61
2022/04/01 03:20:54;;;;;;;;;;;;;;;;;;5111547;28;19995;-62
2022/04/01 03:25:24;;;;;;;;;;;;;;;;;;5111762;27;20439;-62
2022/04/01 03:27:50;;;;;;;;;;;;;;;;;;5112308;28;19995;-62
2022/04/01 03:30:16;;;;;;;;;;;;;;;;;;5111681;28;19912;-62
2022/04/01 03:34:54;;;;;;;;;;;;;;;;;;5112013;27;19922;-61
2022/04/01 03:39:53;;;;;;;;;;;;;;;;;;5111759;27;20298;-63
2022/04/01 03:42:20;;;;;;;;;;;;;;;;;;5111793;28;19995;-64
2022/04/01 03:48:04;;;;;;;;;;;;;;;;;;5111885;27;19923;-61
2022/04/01 03:50:30;;;;;;;;;;;;;;;;;;5111756;28;20006;-61
2022/04/01 03:52:56;;;;;;;;;;;;;;;;;;5111218;28;19934;-61
2022/04/01 03:55:22;;;;;;;;;;;;;;;;;;5112158;28;20003;-63
2022/04/01 03:57:48;;;;;;;;;;;;;;;;;;5110344;28;19908;-63
2022/04/01 04:00:51;;;;;;;;;;;;;;;;;;5111715;27;19918;-62
2022/04/01 04:03:17;;;;;;;;;;;;;;;;;;5111731;28;20006;-62
2022/04/01 04:56:37;;;;;;;;;;;;;;;;;;5153293;27;19937;-63
2022/04/01 04:59:03;;;;;;;;;;;;;;;;;;5152345;27;19915;-63
2022/04/01 05:01:29;;;;;;;;;;;;;;;;;;5152607;27;19915;-63
2022/04/01 05:03:56;;;;;;;;;;;;;;;;;;5152478;27;19907;-62
2022/04/01 05:08:25;;;;;;;;;;;;;;;;;;5092168;28;19912;-63
2022/04/01 05:10:51;;;;;;;;;;;;;;;;;;5090793;28;19912;-63
2022/04/01 05:13:17;;;;;;;;;;;;;;;;;;5089287;28;19962;-65
2022/04/01 05:15:43;;;;;;;;;;;;;;;;;;5089609;28;19957;-64
2022/04/01 05:18:09;;;;;;;;;;;;;;;;;;5090291;28;19956;-64
2022/04/01 05:20:35;;;;;;;;;;;;;;;;;;5089623;28;19919;-63
2022/04/01 05:25:13;;;;;;;;;;;;;;;;;;5090138;28;19917;-65
2022/04/01 05:34:43;;;;;;;;;;;;;;;;;;5152308;27;20002;-62
2022/04/01 05:37:09;;;;;;;;;;;;;;;;;;5134851;27;19912;-63
2022/04/01 05:39:38;;;;;;;;;;;;;;;;;;5123493;28;19995;-64
2022/04/01 05:42:06;;;;;;;;;;;;;;;;;;5144030;27;19911;-65
2022/04/01 05:44:32;;;;;;;;;;;;;;;;;;5140705;27;19907;-62
2022/04/01 05:47:53;;;;;;;;;;;;;;;;;;5085521;27;19916;-62
2022/04/01 05:52:34;;;;;;;;;;;;;;;;;;5088613;28;19919;-62
2022/04/01 05:55:00;;;;;;;;;;;;;;;;;;5088163;28;19912;-65
2022/04/01 05:57:26;;;;;;;;;;;;;;;;;;5088348;28;20371;-63
2022/04/01 05:59:52;;;;;;;;;;;;;;;;;;5081825;28;19955;-62
2022/04/01 06:04:44;;;;;;;;;;;;;;;;;;5151794;27;20010;-62
2022/04/01 06:08:05;;;;;;;;;;;;;;;;;;5158510;27;19994;-62
2022/04/01 06:10:31;;;;;;;;;;;;;;;;;;5132742;27;20256;-63
2022/04/01 06:12:59;;;;;;;;;;;;;;;;;;5152263;27;19960;-62
2022/04/01 06:15:42;;;;;;;;;;;;;;;;;;5152403;27;19914;-65
2022/04/01 06:22:22;;;;;;;;;;;;;;;;;;5097891;27;19920;-64
2022/04/01 06:24:48;;;;;;;;;;;;;;;;;;5089836;28;20436;-64
2022/04/01 06:27:15;;;;;;;;;;;;;;;;;;5090337;28;19974;-66
2022/04/01 06:29:41;;;;;;;;;;;;;;;;;;5087606;28;20300;-64
2022/04/01 06:32:07;;;;;;;;;;;;;;;;;;5085704;28;19965;-64
2022/04/01 06:37:07;;;;;;;;;;;;;;;;;;5085310;28;19923;-66
2022/04/01 06:39:33;;;;;;;;;;;;;;;;;;5088355;28;20282;-65
2022/04/01 06:41:59;;;;;;;;;;;;;;;;;;5085174;28;20590;-61
2022/04/01 06:52:54;;;;;;;;;;;;;;;;;;5110749;27;19922;-64
2022/04/01 06:55:20;;;;;;;;;;;;;;;;;;5109261;28;19999;-63
2022/04/01 06:59:16;;;;;;;;;;;;;;;;;;5089427;27;20310;-61
2022/04/01 07:01:42;;;;;;;;;;;;;;;;;;5088925;28;19913;-62
2022/04/01 07:04:08;;;;;;;;;;;;;;;;;;5088037;28;19908;-62
2022/04/01 07:08:35;;;;;;;;;;;;;;;;;;5088207;27;19913;-61
2022/04/01 07:11:01;;;;;;;;;;;;;;;;;;5088061;28;19944;-62
2022/04/01 07:15:58;;;;;;;;;;;;;;;;;;5108781;27;20364;-63
2022/04/01 07:18:24;;;;;;;;;;;;;;;;;;5110913;28;19912;-63
2022/04/01 07:22:54;;;;;;;;;;;;;;;;;;5129266;27;19911;-63
2022/04/01 07:25:21;;;;;;;;;;;;;;;;;;5128924;27;19962;-63
2022/04/01 07:27:47;;;;;;;;;;;;;;;;;;5124768;27;19907;-63
2022/04/01 07:30:13;;;;;;;;;;;;;;;;;;5114946;28;19912;-62
2022/04/01 07:32:40;;;;;;;;;;;;;;;;;;5113572;28;20616;-63
2022/04/01 07:35:06;;;;;;;;;;;;;;;;;;5126027;27;19918;-61
2022/04/01 07:37:33;;;;;;;;;;;;;;;;;;5129189;28;20391;-61
2022/04/01 07:39:59;;;;;;;;;;;;;;;;;;5127653;27;20383;-61
2022/04/01 07:42:25;;;;;;;;;;;;;;;;;;5110102;28;19963;-63
2022/04/01 07:46:04;;;;;;;;;;;;;;;;;;5089597;27;19916;-62
2022/04/01 07:52:07;;;;;;;;;;;;;;;;;;5089203;27;19916;-63
2022/04/01 07:54:35;;;;;;;;;;;;;;;;;;5089933;28;19912;-63
2022/04/01 07:57:01;;;;;;;;;;;;;;;;;;5089970;28;19999;-63
2022/04/01 07:59:27;;;;;;;;;;;;;;;;;;5085967;28;19926;-64
2022/04/01 08:01:53;;;;;;;;;;;;;;;;;;5089133;28;20387;-62
2022/04/01 08:05:55;;;;;;;;;;;;;;;;;;5189803;27;19922;-63
2022/04/01 08:08:21;;;;;;;;;;;;;;;;;;5172309;27;19911;-62
2022/04/01 08:10:47;;;;;;;;;;;;;;;;;;5153364;27;19907;-63
2022/04/01 08:13:13;;;;;;;;;;;;;;;;;;5171840;27;20281;-63
2022/04/01 08:16:12;;;;;;;;;;;;;;;;;;5138968;27;19922;-64
2022/04/01 08:23:24;;;;;;;;;;;;;;;;;;5084806;27;19912;-65
2022/04/01 08:25:51;;;;;;;;;;;;;;;;;;5087324;28;20391;-62
2022/04/01 08:28:17;;;;;;;;;;;;;;;;;;5087419;28;19920;-63
2022/04/01 08:37:13;;;;;;;;;;;;;;;;;;5105765;27;20306;-63
2022/04/01 08:39:43;;;;;;;;;;;;;;;;;;5109861;28;19912;-63
2022/04/01 08:42:09;;;;;;;;;;;;;;;;;;5102766;28;19908;-63
2022/04/01 08:44:37;;;;;;;;;;;;;;;;;;5111644;28;20309;-62
2022/04/01 08:47:03;;;;;;;;;;;;;;;;;;5120789;28;19912;-63
2022/04/01 08:49:29;;;;;;;;;;;;;;;;;;5119641;28;20019;-63
2022/04/01 08:51:56;;;;;;;;;;;;;;;;;;5125036;28;20022;-63
2022/04/01 08:54:22;;;;;;;;;;;;;;;;;;5113062;28;19961;-63
2022/04/01 08:56:48;;;;;;;;;;;;;;;;;;5123015;28;20383;-61
2022/04/01 08:59:14;;;;;;;;;;;;;;;;;;5107876;28;20391;-64
2022/04/01 09:01:40;;;;;;;;;;;;;;;;;;5122347;28;20386;-62
2022/04/01 09:04:06;;;;;;;;;;;;;;;;;;5110809;28;20419;-62
2022/04/01 09:06:33;;;;;;;;;;;;;;;;;;5107752;28;19966;-63
2022/04/01 09:08:59;;;;;;;;;;;;;;;;;;5118426;28;20002;-63
2022/04/01 09:11:25;;;;;;;;;;;;;;;;;;5112104;28;19908;-63
2022/04/01 09:15:59;;;;;;;;;;;;;;;;;;5123953;27;19922;-63
2022/04/01 09:18:25;;;;;;;;;;;;;;;;;;5108197;28;20279;-62
2022/04/01 09:20:52;;;;;;;;;;;;;;;;;;5128459;27;19907;-63
2022/04/01 09:23:18;;;;;;;;;;;;;;;;;;5127691;27;19957;-62
2022/04/01 09:25:44;;;;;;;;;;;;;;;;;;5129049;27;19961;-62
2022/04/01 09:28:10;;;;;;;;;;;;;;;;;;5125779;28;19911;-63
2022/04/01 09:30:36;;;;;;;;;;;;;;;;;;5128504;27;19952;-62
2022/04/01 09:33:02;;;;;;;;;;;;;;;;;;5109989;27;19908;-63
2022/04/01 09:36:33;;;;;;;;;;;;;;;;;;5089592;28;19921;-67
2022/04/01 09:38:59;;;;;;;;;;;;;;;;;;5088200;28;20530;-62
2022/04/01 09:41:26;;;;;;;;;;;;;;;;;;5088694;28;20270;-62
2022/04/01 09:45:39;;;;;;;;;;;;;;;;;;5089562;28;19923;-62
2022/04/01 09:54:17;;;;;;;;;;;;;;;;;;5110599;27;19912;-64
2022/04/01 09:56:43;;;;;;;;;;;;;;;;;;5110585;28;20412;-64
2022/04/01 10:03:41;;;;;;;;;;;;;;;;;;5087979;27;19927;-64
2022/04/01 10:06:10;;;;;;;;;;;;;;;;;;5090441;28;19912;-64
2022/04/01 10:08:36;;;;;;;;;;;;;;;;;;5088692;28;19930;-65
2022/04/01 10:11:03;;;;;;;;;;;;;;;;;;5089420;28;19913;-65
2022/04/01 10:15:13;;;;;;;;;;;;;;;;;;5090704;27;20376;-64
2022/04/01 10:19:24;;;;;;;;;;;;;;;;;;5078726;28;19924;-65
2022/04/01 10:22:43;;;;;;;;;;;;;;;;;;5089155;27;20403;-65
2022/04/01 10:25:41;;;;;;;;;;;;;;;;;;5090750;27;19912;-65
2022/04/01 10:28:07;;;;;;;;;;;;;;;;;;5089279;28;20006;-64
2022/04/01 10:30:35;;;;;;;;;;;;;;;;;;5089674;28;19927;-65
2022/04/01 10:33:01;;;;;;;;;;;;;;;;;;5090575;28;19912;-65
2022/04/01 10:35:27;;;;;;;;;;;;;;;;;;5089693;28;20372;-65
2022/04/01 10:37:53;;;;;;;;;;;;;;;;;;5090136;28;19909;-64
2022/04/01 10:40:19;;;;;;;;;;;;;;;;;;5090804;28;19920;-66
2022/04/01 10:42:45;;;;;;;;;;;;;;;;;;5090380;28;19987;-64
2022/04/01 10:45:11;;;;;;;;;;;;;;;;;;5088788;28;20406;-65
2022/04/01 10:51:36;;;;;;;;;;;;;;;;;;5089262;28;19908;-64
2022/04/01 10:54:37;;;;;;;;;;;;;;;;;;5090616;27;19916;-64
2022/04/01 10:57:06;;;;;;;;;;;;;;;;;;5091036;28;20007;-65
2022/04/01 10:59:32;;;;;;;;;;;;;;;;;;5089369;28;20007;-65
2022/04/01 11:01:59;;;;;;;;;;;;;;;;;;5091010;28;19946;-63
2022/04/01 11:04:39;;;;;;;;;;;;;;;;;;5090420;28;19923;-65
2022/04/01 11:07:05;;;;;;;;;;;;;;;;;;5085893;28;19912;-66
2022/04/01 11:13:30;;;;;;;;;;;;;;;;;;5090865;28;20277;-66
2022/04/01 11:15:56;;;;;;;;;;;;;;;;;;5091351;28;19913;-65
2022/04/01 11:18:22;;;;;;;;;;;;;;;;;;5090899;28;19908;-66
2022/04/01 11:20:48;;;;;;;;;;;;;;;;;;5083581;28;19908;-64
2022/04/01 11:23:14;;;;;;;;;;;;;;;;;;5082128;28;19958;-66
2022/04/01 11:25:44;;;;;;;;;;;;;;;;;;5073481;28;20091;-64
2022/04/01 11:28:14;;;;;;;;;;;;;;;;;;5070504;28;19916;-64
2022/04/01 11:30:40;;;;;;;;;;;;;;;;;;5074064;28;19908;-66
2022/04/01 11:35:41;;;;;;;;;;;;;;;;;;5080769;27;19921;-65
2022/04/01 11:38:07;;;;;;;;;;;;;;;;;;5078436;28;19936;-65
2022/04/01 11:42:08;;;;;;;;;;;;;;;;;;5084639;27;19924;-65
2022/04/01 11:44:34;;;;;;;;;;;;;;;;;;5057615;28;19920;-65
2022/04/01 11:47:01;;;;;;;;;;;;;;;;;;5051900;28;19917;-64
2022/04/01 11:49:27;;;;;;;;;;;;;;;;;;5069614;28;19909;-66
2022/04/01 11:51:53;;;;;;;;;;;;;;;;;;5070228;28;19912;-69
2022/04/01 11:54:19;;;;;;;;;;;;;;;;;;5069152;28;20369;-70
2022/04/01 11:56:45;;;;;;;;;;;;;;;;;;5055548;28;19921;-69
2022/04/01 11:59:11;;;;;;;;;;;;;;;;;;5045967;28;19967;-64
2022/04/01 12:03:48;;;;;;;;;;;;;;;;;;5113353;27;19924;-65
2022/04/01 12:08:59;;;;;;;;;;;;;;;;;;5103958;28;19935;-64
2022/04/01 12:11:26;;;;;;;;;;;;;;;;;;5111210;28;20390;-65
2022/04/01 12:13:55;;;;;;;;;;;;;;;;;;5109589;28;19915;-65
2022/04/01 12:16:21;;;;;;;;;;;;;;;;;;5110433;28;19922;-66
2022/04/01 12:23:38;;;;;;;;;;;;;;;;;;5084459;28;19917;-64
2022/04/01 12:26:04;;;;;;;;;;;;;;;;;;5076625;28;20304;-64
2022/04/01 12:28:30;;;;;;;;;;;;;;;;;;5076704;28;19988;-63
2022/04/01 12:30:56;;;;;;;;;;;;;;;;;;5075004;28;20368;-64
2022/04/01 12:33:24;;;;;;;;;;;;;;;;;;5063353;28;20319;-64
2022/04/01 12:35:50;;;;;;;;;;;;;;;;;;5070022;28;20272;-64
2022/04/01 12:38:16;;;;;;;;;;;;;;;;;;5071659;28;20319;-63
2022/04/01 12:40:42;;;;;;;;;;;;;;;;;;5068476;28;19913;-63
2022/04/01 12:44:28;;;;;;;;;;;;;;;;;;5152035;27;19912;-64
2022/04/01 12:46:55;;;;;;;;;;;;;;;;;;5137271;27;19937;-64
2022/04/01 12:49:21;;;;;;;;;;;;;;;;;;5129475;28;19955;-64
2022/04/01 15:27:33;;;;;;;;;;;;;;;;;;5112524;27;20286;-64
2022/04/01 15:31:54;;;;;;;;;;;;;;;;;;5111470;27;20271;-65
2022/04/01 15:36:38;;;;;;;;;;;;;;;;;;5112458;27;19917;-64
2022/04/01 15:39:04;;;;;;;;;;;;;;;;;;5111305;28;19955;-64
2022/04/01 15:42:23;;;;;;;;;;;;;;;;;;5092032;27;20303;-65
2022/04/01 15:44:48;;;;;;;;;;;;;;;;;;5090993;28;20007;-64
2022/04/01 15:47:14;;;;;;;;;;;;;;;;;;5091453;28;19940;-66
2022/04/01 15:49:40;;;;;;;;;;;;;;;;;;5090071;28;19958;-67
2022/04/01 15:52:22;;;;;;;;;;;;;;;;;;5111724;27;20385;-64
2022/04/01 15:54:48;;;;;;;;;;;;;;;;;;5111798;28;19947;-64
2022/04/01 15:59:03;;;;;;;;;;;;;;;;;;5111520;27;20401;-65
2022/04/01 16:03:14;;;;;;;;;;;;;;;;;;5091689;27;19917;-64
2022/04/01 16:05:40;;;;;;;;;;;;;;;;;;5090937;28;19999;-64
2022/04/01 16:08:06;;;;;;;;;;;;;;;;;;5091348;28;20018;-64
2022/04/01 16:10:32;;;;;;;;;;;;;;;;;;5091244;28;19962;-65
2022/04/01 16:12:58;;;;;;;;;;;;;;;;;;5089564;28;20355;-64
2022/04/01 16:15:24;;;;;;;;;;;;;;;;;;5091771;28;19919;-64
2022/04/01 16:17:50;;;;;;;;;;;;;;;;;;5091059;28;19965;-64
2022/04/01 16:20:16;;;;;;;;;;;;;;;;;;5090780;28;19912;-63
2022/04/01 16:22:42;;;;;;;;;;;;;;;;;;5091334;28;19924;-66
2022/04/01 16:25:08;;;;;;;;;;;;;;;;;;5089962;28;19909;-67
2022/04/01 16:27:34;;;;;;;;;;;;;;;;;;5090784;28;19912;-63
2022/04/01 16:32:18;;;;;;;;;;;;;;;;;;5062885;27;19936;-64
2022/04/01 16:36:48;;;;;;;300.75;198.10;;;;;;;;;;5111376;27;20839;-64
2022/04/01 16:40:00;;;;;;;551.72;264.55;;;;;;;;;;5111881;27;20941;-64
2022/04/01 16:42:26;;;;;;;330.92;218.95;;;;;;;;;;5109725;28;20031;-65
2022/04/01 16:44:53;;;;;;;366.90;231.77;;;;;;;;;;5110046;28;20028;-64
2022/04/01 16:48:06;;;;;;;131.57;113.70;;;;;;;;;;5051547;28;21042;-64
2022/04/01 16:50:32;;;;;;;;;;;;;;;;;;5051245;28;20065;-64
2022/04/01 16:52:58;;;;;;;;;;;;;;;;;;5051242;28;19905;-64
2022/04/01 16:57:17;;;;;;;;;;;;;;;;;;5112597;27;19916;-64
2022/04/01 17:01:20;;;;;;;;;;;;;;;;;;5112276;27;20907;-64
2022/04/01 17:03:46;;;;;;;;;;;;;;;;;;5111349;28;20023;-64
2022/04/01 17:14:59;;;;;;;;;;;;;;;;;;5091370;28;19958;-64
2022/04/01 17:19:18;;;;;;;;;;;;;;;;;;5111923;27;20388;-64
2022/04/01 17:21:44;;;;;;;;;;;;;;;;;;5111884;28;20032;-64
2022/04/01 17:26:32;;;;;;;;;;;;;;;;;;5111949;27;19916;-64
2022/04/01 17:30:51;;;;;;;;;;;;;;;;;;5091289;27;20394;-64
2022/04/01 17:33:17;;;;;;;;;;;;;;;;;;5091413;28;20491;-64
2022/04/01 17:36:35;;;;;;;;;;;;;;;;;;5091200;27;19912;-64
2022/04/01 17:39:01;;;;;;;;;;;;;;;;;;5091400;28;19912;-64
2022/04/01 17:41:29;;;;;;;;;;;;;;;;;;5091327;28;20332;-64
2022/04/01 17:43:55;;;;;;;;;;;;;;;;;;5090797;28;20516;-64
2022/04/01 17:46:20;;;;;;;;;;;;;;;;;;5091211;28;19909;-64
2022/04/01 17:48:46;;;;;;;;;;;;;;;;;;5091212;28;20283;-64
2022/04/01 17:51:12;;;;;;;;;;;;;;;;;;5090717;28;19908;-64
2022/04/01 17:53:39;;;;;;;;;;;;;;;;;;5091064;28;20355;-64
2022/04/01 17:57:29;;;;;;;;;;;;;;;;;;5112565;27;19917;-64
2022/04/01 17:59:55;;;;;;;;;;;;;;;;;;5111259;28;19920;-64
2022/04/01 18:02:21;;;;;;;;;;;;;;;;;;5110411;28;19995;-64
2022/04/01 18:04:47;;;;;;;;;;;;;;;;;;5111246;28;20347;-65
2022/04/01 18:08:06;;;;;;;;;;;;;;;;;;5112166;27;20393;-64
2022/04/01 18:10:32;;;;;;;;;;;;;;;;;;5111688;28;19961;-64
2022/04/01 18:12:58;;;;;;;;;;;;;;;;;;5109962;28;20367;-64
2022/04/01 18:15:24;;;;;;;;;;;;;;;;;;5111713;28;20367;-64
2022/04/01 18:17:50;;;;;;;;;;;;;;;;;;5111522;28;19904;-64
2022/04/01 18:20:16;;;;;;;;;;;;;;;;;;5111152;28;19908;-64
2022/04/01 18:23:49;;;;;;;;;;;;;;;;;;5111829;27;20252;-64
2022/04/01 18:28:29;;;;;;;;;;;;;;;;;;5112339;27;19916;-65
2022/04/01 18:30:55;;;;;;;;;;;;;;;;;;5111801;28;19912;-65
2022/04/01 18:33:21;;;;;;;;;;;;;;;;;;5111228;28;19923;-64
2022/04/01 18:37:12;;;;;;;;;;;;;;;;;;5112244;27;20733;-63
2022/04/01 18:39:38;;;;;;;;;;;;;;;;;;5112324;28;20021;-63
2022/04/01 18:42:04;;;;;;;;;;;;;;;;;;5109965;28;19920;-63
2022/04/01 18:44:30;;;;;;;;;;;;;;;;;;5110468;28;19904;-63
2022/04/01 18:46:56;;;;;;;;;;;;;;;;;;5111339;28;19994;-63
2022/04/01 18:49:22;;;;;;;;;;;;;;;;;;5111093;28;19916;-63
2022/04/01 18:51:48;;;;;;;;;;;;;;;;;;5111433;28;19904;-62
2022/04/01 18:54:14;;;;;;;;;;;;;;;;;;5111045;28;20350;-63
2022/04/01 18:56:41;;;;;;;;;;;;;;;;;;5111246;28;19919;-63
2022/04/01 18:59:07;;;;;;;;;;;;;;;;;;5109974;28;19957;-62
2022/04/01 19:01:34;;;;;;;;;;;;;;;;;;5109456;28;19904;-62
2022/04/01 19:04:01;;;;;;;;;;;;;;;;;;5109889;28;19904;-63
2022/04/01 19:07:27;;;;;;;;;;;;;;;;;;5111784;27;20892;-62
2022/04/01 19:09:54;;;;;;;398.50;210.07;;;;;;;;;;5110050;28;20442;-64
2022/04/01 19:12:20;;;;;;;;;;;;;;;;;;5111611;28;20106;-63
2022/04/01 19:14:46;;;;;;;;;;;;;;;;;;5110305;28;19950;-62
2022/04/01 19:17:12;;;;;;;;;;;;;;;;;;5109887;28;20003;-64
2022/04/01 19:19:38;;;;;;;;;;;;;;;;;;5111514;28;19908;-63
2022/04/01 19:22:09;;;;;;;225.02;160.15;;;;;;;;;;5109394;28;20764;-63
2022/04/01 19:24:35;;;;;;;;;;;;;;;;;;5110136;28;20034;-63
2022/04/01 19:27:01;;;;;;;;;;;;;;;;;;5111289;28;19912;-62
2022/04/01 19:29:27;;;;;;;;;;;;;;;;;;5110971;28;19908;-62
2022/04/01 19:31:57;;;;;;;;;;;;;;;;;;5109874;28;19908;-63
2022/04/01 19:39:15;;;;;;;576.70;267.70;;;;;;;;;;5111349;27;20396;-63
2022/04/01 19:41:41;;;;;;;307.20;185.40;;;;;;;;;;5110047;28;20024;-63
2022/04/01 19:44:07;;;;;;;;;;;;;;;;;;5109308;28;20016;-63
2022/04/01 19:49:14;;;;;;;462.30;239.20;;;;;;;;;;5109369;27;20388;-64
2022/04/01 19:52:07;;;;;;;440.17;234.65;;;;;;;;;;5109341;27;20389;-64
2022/04/01 19:54:34;;;;;;;;;;;;;;;;;;5110631;28;20031;-64
2022/04/01 19:57:00;;;;;;;545.08;276.33;;;;;;;;;;5108529;28;20389;-64
2022/04/01 19:59:26;;;;;;;337.98;210.35;;;;;;;;;;5109524;28;20028;-64
2022/04/01 20:01:52;;;;;;;;;;;;;;;;;;5110228;28;20027;-64
2022/04/01 20:04:18;;;;;;;;;;;;;;;;;;5111358;28;19959;-64
2022/04/01 20:06:44;;;;;;;;;;;;;;;;;;5111528;28;19911;-64
2022/04/01 20:09:10;;;;;;;;;;;;;;;;;;5111396;28;19947;-64
2022/04/01 20:11:36;;;;;;;;;;;;;;;;;;5111030;28;19916;-64
2022/04/01 20:14:02;;;;;;;;;;;;;;;;;;5111368;28;19904;-64
2022/04/01 20:16:29;;;;;;;;;;;;;;;;;;5111284;28;19908;-64
2022/04/01 20:18:55;;;;;;;;;;;;;;;;;;5111292;28;19911;-64
2022/04/01 20:21:21;;;;;;;;;;;;;;;;;;5111358;28;19911;-64
2022/04/01 20:23:47;;;;;;;;;;;;;;;;;;5109928;28;20440;-64
2022/04/01 20:26:19;;;;;;;;;;;;;;;;;;5110874;28;20379;-65
2022/04/01 20:28:45;;;;;;;;;;;;;;;;;;5111504;28;19904;-64
2022/04/01 20:31:11;;;;;;;;;;;;;;;;;;5111572;28;20247;-63
2022/04/01 20:33:37;;;;;;;;;;;;;;;;;;5110573;28;19908;-64
2022/04/01 20:36:04;;;;;;;;;;;;;;;;;;5109714;28;19969;-64
2022/04/01 20:38:30;;;;;;;;;;;;;;;;;;5110903;28;19986;-64
2022/04/01 20:40:56;;;;;;;;;;;;;;;;;;5110540;28;19970;-64
2022/04/01 20:43:22;;;;;;;;;;;;;;;;;;5111135;28;19965;-64
2022/04/01 20:45:48;;;;;;;;;;;;;;;;;;5111065;28;19943;-64
2022/04/01 20:48:14;;;;;;;;;;;;;;;;;;5110315;28;19904;-63
2022/04/01 20:50:40;;;;;;;;;;;;;;;;;;5109098;28;19923;-64
2022/04/01 20:53:06;;;;;;;;;;;;;;;;;;5110645;28;19904;-64
2022/04/01 20:58:43;;;;;;;511.50;244.18;;;;;;;;;;5112071;27;20520;-64
2022/04/01 21:02:27;;;;;;;;;;;;;;;;;;5111479;27;20393;-63
2022/04/01 21:04:53;;;;;;;605.65;261.00;;;;;;;;;;5111125;28;20396;-64
2022/04/01 21:07:19;;;;;;;;;;;;;;;;;;5112039;28;20028;-64
2022/04/01 21:09:45;;;;;;;;;;;;;;;;;;5110022;28;19904;-64
2022/04/01 21:12:12;;;;;;;;;;;;;;;;;;5111604;28;20329;-64
2022/04/01 21:14:38;;;;;;;;;;;;;;;;;;5109822;28;19951;-64
2022/04/01 21:17:04;;;;;;;;;;;;;;;;;;5111545;28;20379;-64
2022/04/01 21:19:30;;;;;;;;;;;;;;;;;;5111576;28;19904;-64
2022/04/01 21:21:56;;;;;;;;;;;;;;;;;;5110985;28;20403;-64
2022/04/01 21:24:22;;;;;;;;;;;;;;;;;;5111423;28;19954;-63
2022/04/01 21:29:33;;;;;;;;;;;;;;;;;;5110885;28;20008;-63
2022/04/01 21:31:59;;;;;;;;;;;;;;;;;;5110035;28;20015;-64
2022/04/01 21:34:25;;;;;;;;;;;;;;;;;;5109805;28;20015;-64
2022/04/01 21:36:51;;;;;;;;;;;;;;;;;;5110730;28;20445;-63
2022/04/01 21:39:17;;;;;;;;;;;;;;;;;;5111030;28;20061;-64
2022/04/01 21:41:43;;;;;;;;;;;;;;;;;;5110989;28;20002;-63
2022/04/01 21:44:09;;;;;;;;;;;;;;;;;;5110580;28;20295;-63
2022/04/01 21:46:35;;;;;;;;;;;;;;;;;;5110977;28;19904;-63
2022/04/01 21:49:01;;;;;;;;;;;;;;;;;;5109701;28;19904;-64
2022/04/01 21:51:27;;;;;;;;;;;;;;;;;;5109223;28;19921;-64
2022/04/01 21:53:53;;;;;;;;;;;;;;;;;;5110817;28;19904;-63
2022/04/01 21:56:19;;;;;;;;;;;;;;;;;;5111137;28;20002;-63
2022/04/01 21:58:45;;;;;;;;;;;;;;;;;;5109066;28;20347;-64
2022/04/01 22:03:40;;;;;;;;;;;;;;;;;;5111721;27;20384;-64
2022/04/01 22:06:07;;;;;;;;;;;;;;;;;;5109989;28;20020;-64
2022/04/01 22:08:35;;;;;;;;;;;;;;;;;;5111561;28;19910;-64
2022/04/01 22:11:01;;;;;;;;;;;;;;;;;;5111221;28;19908;-64
2022/04/01 22:13:27;;;;;;;;;;;;;;;;;;5110264;28;19904;-64
2022/04/01 22:15:53;;;;;;;;;;;;;;;;;;5111522;28;19911;-64
2022/04/01 22:18:19;;;;;;;;;;;;;;;;;;5111141;28;20351;-64
2022/04/01 22:20:45;;;;;;;;;;;;;;;;;;5111765;28;19911;-63
2022/04/01 22:23:11;;;;;;;;;;;;;;;;;;5110048;28;19980;-63
2022/04/01 22:25:37;;;;;;;;;;;;;;;;;;5110965;28;19907;-64
2022/04/01 22:28:05;;;;;;;;;;;;;;;;;;5111316;28;19908;-63
2022/04/01 22:30:31;;;;;;;;;;;;;;;;;;5111241;28;20322;-63
2022/04/01 22:32:57;;;;;;;;;;;;;;;;;;5111013;28;19904;-64
2022/04/01 22:35:24;;;;;;;;;;;;;;;;;;5111205;28;19911;-64
2022/04/01 22:37:50;;;;;;;;;;;;;;;;;;5111127;28;19927;-64
2022/04/01 22:40:16;;;;;;;;;;;;;;;;;;5109453;28;20363;-64
2022/04/01 22:42:42;;;;;;;;;;;;;;;;;;5111056;28;19919;-64
2022/04/01 22:45:08;;;;;;;;;;;;;;;;;;5109720;28;19910;-64
2022/04/01 22:47:34;;;;;;;;;;;;;;;;;;5110546;28;19904;-64
2022/04/01 22:50:00;;;;;;;;;;;;;;;;;;5109655;28;19910;-64
2022/04/01 22:52:30;;;;;;;;;;;;;;;;;;5109641;28;19904;-64
2022/04/01 22:54:56;;;;;;;;;;;;;;;;;;5110247;28;19910;-64
2022/04/01 22:57:22;;;;;;;;;;;;;;;;;;5110895;28;19998;-64
2022/04/01 22:59:48;;;;;;;;;;;;;;;;;;5110744;28;19907;-64
2022/04/01 23:02:15;;;;;;;;;;;;;;;;;;5109956;28;20339;-64
2022/04/01 23:04:42;;;;;;;;;;;;;;;;;;5110684;28;20416;-64
2022/04/01 23:07:08;;;;;;;;;;;;;;;;;;5110207;28;20287;-64
2022/04/01 23:09:34;;;;;;;;;;;;;;;;;;5110563;28;19904;-64
2022/04/01 23:12:00;;;;;;;;;;;;;;;;;;5110465;28;19908;-64
2022/04/01 23:14:27;;;;;;;;;;;;;;;;;;5098348;28;19907;-64
2022/04/01 23:16:53;;;;;;;;;;;;;;;;;;5096778;28;19904;-64
2022/04/01 23:19:19;;;;;;;;;;;;;;;;;;5096763;28;19973;-64
2022/04/01 23:21:45;;;;;;;;;;;;;;;;;;5096285;28;19915;-64
2022/04/01 23:24:12;;;;;;;;;;;;;;;;;;5096978;28;19908;-64
2022/04/01 23:26:40;;;;;;;;;;;;;;;;;;5096495;28;19911;-64
2022/04/01 23:29:06;;;;;;;;;;;;;;;;;;5094886;28;19999;-64
2022/04/01 23:31:32;;;;;;;;;;;;;;;;;;5096822;28;19949;-63
2022/04/01 23:33:58;;;;;;;;;;;;;;;;;;5095217;28;19911;-64
2022/04/01 23:36:24;;;;;;;;;;;;;;;;;;5096028;28;19911;-64